Time;durP1;ratioP1;P1;durP2;ratioP2;P2;SDS_P1;SDS_P2;PMS_P1;PMS_P2;Temp;Humidity;BMP_temperature;BMP_pressure;BME280_temperature;BME280_humidity;BME280_pressure;Samples;Min_cycle;Max_cycle;Signal;HPM_P1;HPM_P2
2023/10/05 00:04:29;;;;;;;7.50;3.43;;;8.20;99.90;;;;;;5022121;28;20434;-58
2023/10/05 00:06:54;;;;;;;7.40;3.70;;;8.20;99.90;;;;;;5024420;28;20438;-58
2023/10/05 00:09:21;;;;;;;4.33;3.20;;;8.20;99.90;;;;;;5022721;28;20454;-59
2023/10/05 00:11:47;;;;;;;3.77;3.07;;;8.20;99.90;;;;;;5014553;28;20230;-59
2023/10/05 00:14:13;;;;;;;4.17;2.97;;;8.20;99.90;;;;;;5015233;28;20912;-59
2023/10/05 00:16:43;;;;;;;3.47;3.17;;;8.10;99.90;;;;;;5013219;28;20471;-58
2023/10/05 00:19:16;;;;;;;5.73;3.20;;;8.10;99.90;;;;;;5011258;28;20196;-60
2023/10/05 00:21:56;;;;;;;3.50;2.67;;;8.10;99.90;;;;;;5011247;28;20434;-58
2023/10/05 00:24:32;;;;;;;8.10;3.83;;;8.10;99.90;;;;;;5014356;28;20431;-58
2023/10/05 00:26:58;;;;;;;8.20;3.80;;;8.00;99.90;;;;;;5013554;28;20441;-59
2023/10/05 00:29:40;;;;;;;8.33;4.07;;;8.00;99.90;;;;;;5009684;28;20458;-58
2023/10/05 00:32:12;;;;;;;4.73;3.00;;;8.00;99.90;;;;;;5011496;28;20434;-58
2023/10/05 00:34:37;;;;;;;5.37;3.07;;;8.00;99.90;;;;;;5011808;28;20937;-61
2023/10/05 00:37:06;;;;;;;7.50;3.60;;;8.00;99.90;;;;;;5009789;28;21102;-60
2023/10/05 00:39:32;;;;;;;5.23;3.33;;;8.00;99.90;;;;;;5014497;28;20203;-59
2023/10/05 00:44:34;;;;;;;5.43;3.03;;;7.90;99.90;;;;;;5012918;28;20674;-59
2023/10/05 00:47:00;;;;;;;4.87;2.93;;;7.90;99.90;;;;;;5018094;28;20439;-59
2023/10/05 00:49:37;;;;;;;4.90;2.80;;;7.90;99.90;;;;;;5016688;28;20455;-56
2023/10/05 00:52:15;;;;;;;5.27;3.17;;;7.90;99.90;;;;;;5013538;28;20987;-59
2023/10/05 00:54:54;;;;;;;4.07;3.23;;;7.90;99.90;;;;;;5011681;28;20444;-59
2023/10/05 00:57:24;;;;;;;5.03;3.17;;;7.90;99.90;;;;;;5010858;28;20487;-59
2023/10/05 01:00:16;;;;;;;6.63;3.73;;;7.80;99.90;;;;;;5013225;28;20442;-59
2023/10/05 01:05:34;;;;;;;5.93;3.67;;;7.80;99.90;;;;;;5008938;28;20422;-58
2023/10/05 01:08:04;;;;;;;7.50;3.60;;;7.80;99.90;;;;;;5015381;28;20435;-59
2023/10/05 01:10:48;;;;;;;4.03;2.77;;;7.80;99.90;;;;;;5009424;28;20438;-58
2023/10/05 01:13:23;;;;;;;4.60;3.03;;;7.80;99.90;;;;;;5014604;28;20445;-58
2023/10/05 01:15:52;;;;;;;5.70;3.80;;;7.80;99.90;;;;;;5012159;28;20447;-58
2023/10/05 01:18:18;;;;;;;5.40;3.30;;;7.80;99.90;;;;;;5010695;28;20470;-59
2023/10/05 01:20:43;;;;;;;8.60;3.77;;;7.80;99.90;;;;;;5013743;28;20844;-58
2023/10/05 01:23:09;;;;;;;4.30;3.00;;;7.80;99.90;;;;;;5012328;28;20236;-59
2023/10/05 01:25:36;;;;;;;5.77;3.83;;;7.80;99.90;;;;;;5012819;28;20280;-59
2023/10/05 01:28:02;;;;;;;6.90;3.50;;;7.70;99.90;;;;;;5011333;28;20188;-60
2023/10/05 01:30:28;;;;;;;5.40;3.70;;;7.70;99.90;;;;;;5010517;28;20437;-58
2023/10/05 01:32:54;;;;;;;4.07;3.40;;;7.70;99.90;;;;;;5011702;28;20435;-57
2023/10/05 01:35:20;;;;;;;5.03;3.17;;;7.70;99.90;;;;;;5008518;28;20179;-58
2023/10/05 01:37:51;;;;;;;8.00;3.90;;;7.70;99.90;;;;;;5014768;28;20576;-58
2023/10/05 01:40:24;;;;;;;;;;;;;;;;;;;;;
2023/10/05 01:42:51;;;;;;;7.50;3.50;;;7.70;99.90;;;;;;5012943;28;22002;-58
2023/10/05 01:45:22;;;;;;;7.43;3.33;;;7.60;99.90;;;;;;5011855;28;20442;-58
2023/10/05 01:47:49;;;;;;;5.27;3.20;;;7.60;99.90;;;;;;5014078;28;20473;-58
2023/10/05 01:50:19;;;;;;;6.93;3.53;;;7.60;99.90;;;;;;5012939;28;20462;-58
2023/10/05 01:52:57;;;;;;;7.13;3.70;;;7.60;99.90;;;;;;5015176;28;20517;-59
2023/10/05 01:55:24;;;;;;;4.07;3.03;;;7.60;99.90;;;;;;5010801;28;20434;-58
2023/10/05 01:57:52;;;;;;;7.60;3.63;;;7.50;99.90;;;;;;5016695;28;20463;-60
2023/10/05 02:00:20;;;;;;;5.00;3.60;;;7.50;99.90;;;;;;5023906;28;20442;-59
2023/10/05 02:02:46;;;;;;;5.07;3.37;;;7.40;99.90;;;;;;5022044;28;20440;-58
2023/10/05 02:05:15;;;;;;;4.63;2.83;;;7.40;99.90;;;;;;5015145;28;20808;-59
2023/10/05 02:07:41;;;;;;;4.53;3.47;;;7.40;99.90;;;;;;5026057;28;20447;-59
2023/10/05 02:10:11;;;;;;;6.03;3.43;;;7.40;99.90;;;;;;5020662;28;20836;-58
2023/10/05 02:12:38;;;;;;;3.53;2.70;;;7.40;99.90;;;;;;5014599;28;20183;-58
2023/10/05 02:15:12;;;;;;;4.40;3.40;;;7.40;99.90;;;;;;5014677;28;20466;-59
2023/10/05 02:17:42;;;;;;;7.13;3.10;;;7.40;99.90;;;;;;5014680;28;20522;-58
2023/10/05 02:20:17;;;;;;;6.03;3.40;;;7.30;99.90;;;;;;5008924;28;20446;-59
2023/10/05 02:22:47;;;;;;;5.87;3.50;;;7.30;99.90;;;;;;5014442;28;20422;-58
2023/10/05 02:25:12;;;;;;;5.70;3.10;;;7.30;99.90;;;;;;5013751;28;21115;-59
2023/10/05 02:27:46;;;;;;;5.97;2.83;;;7.20;99.90;;;;;;5018141;28;20465;-58
2023/10/05 02:30:13;;;;;;;3.90;3.10;;;7.20;99.90;;;;;;5007625;28;20195;-58
2023/10/05 02:32:40;;;;;;;5.47;3.50;;;7.20;99.90;;;;;;5017477;28;20794;-58
2023/10/05 02:35:19;;;;;;;4.00;2.90;;;7.10;99.90;;;;;;5024798;28;20481;-59
2023/10/05 02:37:48;;;;;;;5.63;3.07;;;7.10;99.90;;;;;;5015130;28;21094;-59
2023/10/05 02:40:15;;;;;;;7.67;3.77;;;7.10;99.90;;;;;;5015040;28;20438;-58
2023/10/05 02:42:41;;;;;;;5.67;3.17;;;7.10;99.90;;;;;;5026907;28;20428;-59
2023/10/05 02:45:09;;;;;;;6.20;3.30;;;7.10;99.90;;;;;;5022604;28;20576;-59
2023/10/05 02:47:34;;;;;;;7.60;3.40;;;7.10;99.90;;;;;;5013591;28;20457;-59
2023/10/05 02:50:05;;;;;;;7.30;3.43;;;7.10;99.90;;;;;;5013748;28;20463;-58
2023/10/05 02:52:33;;;;;;;5.17;3.73;;;7.10;99.90;;;;;;5012592;28;20267;-58
2023/10/05 02:54:58;;;;;;;5.10;2.93;;;7.10;99.90;;;;;;5011451;28;20510;-58
2023/10/05 02:57:25;;;;;;;7.57;3.50;;;7.00;99.90;;;;;;5011764;28;20541;-58
2023/10/05 02:59:51;;;;;;;5.37;4.00;;;7.00;99.90;;;;;;5014448;28;20192;-58
2023/10/05 03:02:18;;;;;;;7.53;3.30;;;7.00;99.90;;;;;;5014059;28;20520;-58
2023/10/05 03:04:45;;;;;;;5.03;3.57;;;7.00;99.90;;;;;;5012980;28;20422;-58
2023/10/05 03:07:15;;;;;;;7.77;3.93;;;7.00;99.90;;;;;;5013875;28;20952;-58
2023/10/05 03:09:42;;;;;;;4.83;3.20;;;6.90;99.90;;;;;;5016028;28;20521;-59
2023/10/05 03:12:09;;;;;;;4.53;2.93;;;6.90;99.90;;;;;;5015201;28;20992;-58
2023/10/05 03:14:34;;;;;;;6.60;3.40;;;6.80;99.90;;;;;;5012810;28;20429;-58
2023/10/05 03:17:07;;;;;;;5.20;3.20;;;6.80;99.90;;;;;;5015394;28;21445;-57
2023/10/05 03:19:37;;;;;;;6.27;3.40;;;6.80;99.90;;;;;;5012035;28;20192;-58
2023/10/05 03:22:07;;;;;;;6.90;3.20;;;6.80;99.90;;;;;;5014838;28;20588;-58
2023/10/05 03:24:34;;;;;;;7.43;2.93;;;6.80;99.90;;;;;;5010154;28;20447;-58
2023/10/05 03:27:03;;;;;;;5.77;3.37;;;6.80;99.90;;;;;;5011647;28;20442;-58
2023/10/05 03:29:29;;;;;;;4.00;3.53;;;6.90;99.90;;;;;;5012746;28;20454;-58
2023/10/05 03:34:34;;;;;;;6.70;3.50;;;6.90;99.90;;;;;;5015566;28;20474;-59
2023/10/05 03:37:07;;;;;;;3.67;2.80;;;6.90;99.90;;;;;;5015347;28;20468;-59
2023/10/05 03:39:38;;;;;;;6.60;3.90;;;6.90;99.90;;;;;;5016164;28;20450;-60
2023/10/05 03:42:05;;;;;;;4.63;3.37;;;6.90;99.90;;;;;;5013407;28;20469;-58
2023/10/05 03:44:31;;;;;;;8.13;3.90;;;6.90;99.90;;;;;;5017250;28;20800;-58
2023/10/05 03:46:57;;;;;;;8.37;4.47;;;6.90;99.90;;;;;;5010932;28;20474;-58
2023/10/05 03:49:23;;;;;;;5.23;3.73;;;6.90;99.90;;;;;;5017257;28;20474;-58
2023/10/05 03:51:49;;;;;;;6.47;4.00;;;6.90;99.90;;;;;;5011639;28;20435;-58
2023/10/05 03:54:19;;;;;;;6.10;4.87;;;6.90;99.90;;;;;;5008986;28;20192;-58
2023/10/05 03:56:46;;;;;;;5.23;4.27;;;6.90;99.90;;;;;;5010093;28;20469;-59
2023/10/05 03:59:12;;;;;;;5.40;3.33;;;6.90;99.90;;;;;;5011667;28;20443;-59
2023/10/05 04:01:37;;;;;;;9.40;3.70;;;6.80;99.90;;;;;;5015909;28;20517;-59
2023/10/05 04:04:08;;;;;;;9.03;4.23;;;6.80;99.90;;;;;;5014911;28;20526;-56
2023/10/05 04:06:36;;;;;;;5.63;3.87;;;6.90;99.90;;;;;;5024028;28;20179;-55
2023/10/05 04:09:03;;;;;;;6.50;4.37;;;6.80;99.90;;;;;;5019505;28;20548;-58
2023/10/05 04:11:33;;;;;;;6.93;4.23;;;6.80;99.90;;;;;;5017392;28;20958;-63
2023/10/05 04:14:01;;;;;;;7.37;4.57;;;6.90;99.90;;;;;;5024964;28;20442;-57
2023/10/05 04:16:28;;;;;;;10.53;5.00;;;6.90;99.90;;;;;;5021996;28;20423;-57
2023/10/05 04:18:55;;;;;;;8.40;4.83;;;6.80;99.90;;;;;;5022071;28;20478;-59
2023/10/05 04:21:24;;;;;;;8.80;4.80;;;6.70;99.90;;;;;;5014528;28;20435;-59
2023/10/05 04:23:50;;;;;;;7.17;4.43;;;6.70;99.90;;;;;;5019726;28;20438;-60
2023/10/05 04:26:20;;;;;;;9.30;5.30;;;6.70;99.90;;;;;;5018179;28;20827;-57
2023/10/05 04:28:54;;;;;;;7.90;5.10;;;6.70;99.90;;;;;;5024810;28;20600;-56
2023/10/05 04:31:27;;;;;;;7.27;4.83;;;6.70;99.90;;;;;;5007730;28;20426;-60
2023/10/05 04:33:57;;;;;;;9.30;5.00;;;6.80;99.90;;;;;;5011197;28;20452;-58
2023/10/05 04:36:23;;;;;;;7.13;4.80;;;6.80;99.90;;;;;;5015875;28;20438;-57
2023/10/05 04:38:53;;;;;;;6.90;4.73;;;6.80;99.90;;;;;;5016156;28;20461;-61
2023/10/05 04:41:34;;;;;;;14.40;5.33;;;6.80;99.90;;;;;;5020549;28;20893;-59
2023/10/05 04:44:01;;;;;;;7.60;5.30;;;6.80;99.90;;;;;;5023544;28;20436;-58
2023/10/05 04:46:30;;;;;;;9.70;5.17;;;6.80;99.90;;;;;;5014222;28;21115;-58
2023/10/05 04:48:56;;;;;;;7.77;5.40;;;6.80;99.90;;;;;;5019207;28;20450;-58
2023/10/05 04:51:32;;;;;;;8.30;5.50;;;6.80;99.90;;;;;;5015665;28;20552;-55
2023/10/05 04:53:59;;;;;;;6.83;5.03;;;6.80;99.90;;;;;;5015406;28;20442;-55
2023/10/05 04:56:35;;;;;;;8.60;5.10;;;6.80;99.90;;;;;;5011132;28;20466;-56
2023/10/05 05:01:56;;;;;;;13.80;5.20;;;6.80;99.90;;;;;;5008513;28;20933;-57
2023/10/05 05:07:09;;;;;;;7.23;5.37;;;6.80;99.90;;;;;;5015083;28;21149;-56
2023/10/05 05:09:41;;;;;;;8.53;5.87;;;6.80;99.90;;;;;;5010763;28;20466;-59
2023/10/05 05:12:12;;;;;;;10.87;6.30;;;6.80;99.90;;;;;;5011660;28;20481;-58
2023/10/05 05:14:42;;;;;;;12.10;6.93;;;6.80;99.90;;;;;;5010617;28;20636;-58
2023/10/05 05:17:12;;;;;;;9.33;6.50;;;6.90;99.90;;;;;;5022179;28;20540;-59
2023/10/05 05:19:40;;;;;;;11.20;6.47;;;6.90;99.90;;;;;;5025992;28;20450;-58
2023/10/05 05:22:07;;;;;;;10.20;7.03;;;6.90;99.90;;;;;;5025062;28;20426;-58
2023/10/05 05:24:33;;;;;;;11.30;6.87;;;6.90;99.90;;;;;;5023065;28;20430;-57
2023/10/05 05:27:21;;;;;;;7.33;5.70;;;6.90;99.90;;;;;;5023253;28;20445;-58
2023/10/05 05:29:48;;;;;;;7.30;6.33;;;6.90;99.90;;;;;;5025088;28;20468;-58
2023/10/05 05:32:14;;;;;;;8.60;6.30;;;6.90;99.90;;;;;;5031208;28;20421;-58
2023/10/05 05:34:41;;;;;;;9.00;6.20;;;6.90;99.90;;;;;;5024065;28;20430;-58
2023/10/05 05:37:28;;;;;;;9.47;5.90;;;6.80;99.90;;;;;;5030414;28;20466;-58
2023/10/05 05:39:54;;;;;;;7.10;5.50;;;6.80;99.90;;;;;;5027963;28;20960;-58
2023/10/05 05:42:20;;;;;;;7.07;5.50;;;6.90;99.90;;;;;;5027039;28;20442;-58
2023/10/05 05:44:45;;;;;;;7.90;6.00;;;6.80;99.90;;;;;;5030794;28;20432;-58
2023/10/05 05:47:14;;;;;;;9.90;5.73;;;6.80;99.90;;;;;;5029992;28;20597;-58
2023/10/05 05:49:40;;;;;;;9.60;6.13;;;6.80;99.90;;;;;;5027013;28;20207;-58
2023/10/05 05:52:10;;;;;;;9.27;6.27;;;6.80;99.90;;;;;;5028588;28;20473;-56
2023/10/05 05:54:36;;;;;;;7.67;5.77;;;6.80;99.90;;;;;;5029537;28;20493;-58
2023/10/05 05:57:06;;;;;;;8.30;5.67;;;6.80;99.90;;;;;;5030610;28;20470;-58
2023/10/05 05:59:35;;;;;;;10.63;5.70;;;6.80;99.90;;;;;;5029433;28;20191;-58
2023/10/05 06:02:08;;;;;;;9.57;6.17;;;6.80;99.90;;;;;;5025733;28;20524;-59
2023/10/05 06:04:34;;;;;;;8.40;6.17;;;6.90;99.90;;;;;;5028849;28;20418;-58
2023/10/05 06:07:01;;;;;;;8.33;5.93;;;6.90;99.90;;;;;;5029929;28;20433;-58
2023/10/05 06:09:33;;;;;;;9.80;5.90;;;7.00;99.90;;;;;;5027743;28;20459;-57
2023/10/05 06:12:02;;;;;;;9.33;5.67;;;7.00;99.90;;;;;;5025845;28;20450;-58
2023/10/05 06:14:28;;;;;;;11.20;5.83;;;7.00;99.90;;;;;;5026513;28;20912;-58
2023/10/05 06:16:56;;;;;;;7.17;4.80;;;7.00;99.90;;;;;;5024536;28;20481;-57
2023/10/05 06:19:21;;;;;;;9.80;5.80;;;7.10;99.90;;;;;;5027255;28;20450;-57
2023/10/05 06:21:47;;;;;;;9.53;5.93;;;7.10;99.90;;;;;;5024566;28;20633;-58
2023/10/05 06:24:12;;;;;;;9.80;6.57;;;7.10;99.90;;;;;;5030576;28;20310;-58
2023/10/05 06:26:38;;;;;;;8.10;6.30;;;7.10;99.90;;;;;;5029375;28;20706;-58
2023/10/05 06:29:08;;;;;;;7.17;5.30;;;7.10;99.90;;;;;;5025941;28;20196;-58
2023/10/05 06:31:36;;;;;;;10.33;5.73;;;7.20;99.90;;;;;;5023047;28;20258;-58
2023/10/05 06:34:08;;;;;;;7.93;6.10;;;7.20;99.90;;;;;;5029077;28;20422;-57
2023/10/05 06:36:33;;;;;;;10.13;6.73;;;7.20;99.90;;;;;;5025652;28;20953;-58
2023/10/05 06:39:00;;;;;;;7.67;5.80;;;7.30;99.90;;;;;;5032616;28;20496;-58
2023/10/05 06:41:25;;;;;;;10.37;6.23;;;7.30;99.90;;;;;;5017017;28;20180;-57
2023/10/05 06:43:51;;;;;;;11.87;6.90;;;7.40;99.90;;;;;;5022022;28;20415;-58
2023/10/05 06:46:22;;;;;;;12.83;6.10;;;7.40;99.90;;;;;;5027631;28;20271;-58
2023/10/05 06:48:50;;;;;;;11.37;6.30;;;7.50;99.90;;;;;;5029665;28;20747;-58
2023/10/05 06:51:26;;;;;;;9.80;6.00;;;7.60;99.90;;;;;;5017104;28;20441;-59
2023/10/05 06:53:52;;;;;;;8.13;6.03;;;7.70;99.90;;;;;;5028135;28;20430;-58
2023/10/05 06:56:19;;;;;;;9.40;6.43;;;7.70;99.90;;;;;;5028404;28;20961;-58
2023/10/05 06:58:45;;;;;;;11.83;6.30;;;7.70;99.90;;;;;;5026550;28;20505;-58
2023/10/05 07:01:10;;;;;;;10.50;6.37;;;7.80;99.90;;;;;;5025929;28;20465;-58
2023/10/05 07:03:36;;;;;;;15.30;6.27;;;7.80;99.90;;;;;;5029283;28;20583;-58
2023/10/05 07:06:04;;;;;;;12.40;6.10;;;7.80;99.90;;;;;;5024194;28;20626;-59
2023/10/05 07:08:33;;;;;;;8.40;5.80;;;7.80;99.90;;;;;;5029297;28;20191;-58
2023/10/05 07:10:59;;;;;;;8.27;5.97;;;7.90;99.90;;;;;;5027702;28;20937;-58
2023/10/05 07:13:28;;;;;;;15.80;6.13;;;7.90;99.90;;;;;;5027002;28;20489;-58
2023/10/05 07:15:55;;;;;;;10.20;5.50;;;8.00;99.90;;;;;;5027384;28;20442;-58
2023/10/05 07:18:21;;;;;;;11.80;6.23;;;8.00;99.90;;;;;;5029671;28;20472;-56
2023/10/05 07:20:48;;;;;;;12.57;6.13;;;8.10;99.90;;;;;;5020707;28;20427;-58
2023/10/05 07:23:13;;;;;;;9.83;5.33;;;8.10;99.90;;;;;;5026155;28;20430;-57
2023/10/05 07:25:41;;;;;;;12.60;6.50;;;8.20;99.90;;;;;;5027975;28;20476;-58
2023/10/05 07:28:14;;;;;;;8.30;5.83;;;8.30;99.90;;;;;;5026740;28;20179;-58
2023/10/05 07:30:41;;;;;;;14.03;6.83;;;8.40;99.90;;;;;;5024009;28;20525;-58
2023/10/05 07:33:06;;;;;;;11.27;6.73;;;8.50;99.90;;;;;;5024342;28;20480;-58
2023/10/05 07:35:32;;;;;;;9.63;6.00;;;8.70;99.90;;;;;;5026845;28;21024;-59
2023/10/05 07:37:59;;;;;;;9.87;6.00;;;8.80;99.90;;;;;;5020201;28;20226;-58
2023/10/05 07:40:25;;;;;;;14.60;6.30;;;8.90;99.90;;;;;;5022536;28;20303;-58
2023/10/05 07:42:51;;;;;;;9.80;5.67;;;8.90;99.90;;;;;;5023397;28;20919;-59
2023/10/05 07:45:17;;;;;;;8.93;5.10;;;9.00;99.90;;;;;;5022495;28;20177;-60
2023/10/05 07:47:44;;;;;;;11.90;6.60;;;9.00;99.90;;;;;;5021590;28;20180;-58
2023/10/05 07:50:10;;;;;;;9.60;6.40;;;9.10;99.90;;;;;;5021688;28;20216;-58
2023/10/05 07:52:40;;;;;;;9.13;6.40;;;9.10;99.90;;;;;;5027267;28;20435;-57
2023/10/05 07:55:07;;;;;;;8.57;5.63;;;9.10;99.90;;;;;;5028084;28;20429;-58
2023/10/05 07:57:32;;;;;;;11.17;5.57;;;9.20;99.90;;;;;;5025807;28;20459;-58
2023/10/05 07:59:58;;;;;;;11.90;5.63;;;9.40;99.90;;;;;;5022614;28;20434;-58
2023/10/05 08:02:24;;;;;;;9.67;5.40;;;9.40;99.90;;;;;;5024903;28;20194;-59
2023/10/05 08:04:49;;;;;;;10.43;5.77;;;9.40;99.90;;;;;;5026837;28;20203;-60
2023/10/05 08:07:15;;;;;;;11.60;6.53;;;9.50;99.90;;;;;;5026979;28;20191;-60
2023/10/05 08:09:44;;;;;;;9.77;6.70;;;9.60;99.90;;;;;;5025055;28;20208;-59
2023/10/05 08:12:13;;;;;;;9.33;5.80;;;9.70;99.90;;;;;;5020957;28;20184;-58
2023/10/05 08:14:39;;;;;;;9.27;6.47;;;9.80;99.90;;;;;;5024994;28;20435;-59
2023/10/05 08:17:05;;;;;;;14.13;6.27;;;9.90;99.90;;;;;;5027992;28;20494;-59
2023/10/05 08:19:31;;;;;;;9.63;5.77;;;10.00;99.90;;;;;;5025558;28;20489;-58
2023/10/05 08:21:56;;;;;;;11.13;6.63;;;10.10;99.90;;;;;;5022006;28;20465;-59
2023/10/05 08:24:26;;;;;;;9.70;6.00;;;10.10;99.90;;;;;;5021147;28;20694;-58
2023/10/05 08:26:53;;;;;;;12.03;6.73;;;10.20;99.90;;;;;;5025156;28;20172;-59
2023/10/05 08:29:22;;;;;;;11.13;7.53;;;10.30;99.90;;;;;;5019455;28;20454;-59
2023/10/05 08:31:51;;;;;;;10.30;6.00;;;10.30;99.90;;;;;;5014712;28;20468;-59
2023/10/05 08:34:20;;;;;;;9.67;5.70;;;10.40;99.90;;;;;;5026019;28;20458;-58
2023/10/05 08:36:53;;;;;;;18.13;5.97;;;10.40;99.90;;;;;;5028138;28;20793;-58
2023/10/05 08:39:24;;;;;;;12.00;6.90;;;10.40;99.90;;;;;;5023576;28;20466;-58
2023/10/05 08:41:54;;;;;;;15.63;6.63;;;10.50;99.90;;;;;;5026927;28;20426;-59
2023/10/05 08:44:26;;;;;;;11.63;5.80;;;10.60;99.90;;;;;;5026665;28;20431;-57
2023/10/05 08:46:58;;;;;;;14.63;6.40;;;10.80;99.90;;;;;;5026732;28;20441;-58
2023/10/05 08:49:26;;;;;;;16.00;5.57;;;10.90;99.90;;;;;;5024827;28;20564;-59
2023/10/05 08:51:52;;;;;;;14.83;5.77;;;11.10;99.90;;;;;;5019390;28;20456;-59
2023/10/05 08:54:27;;;;;;;9.10;5.83;;;11.20;99.90;;;;;;5018538;28;20463;-59
2023/10/05 08:56:57;;;;;;;15.07;5.80;;;11.30;99.90;;;;;;5021925;28;20462;-56
2023/10/05 08:59:26;;;;;;;11.37;5.70;;;11.50;99.90;;;;;;5025096;28;20491;-59
2023/10/05 09:01:53;;;;;;;7.17;5.87;;;11.70;99.90;;;;;;5025330;28;20430;-58
2023/10/05 09:04:29;;;;;;;7.73;5.10;;;11.80;99.90;;;;;;5031495;28;20437;-59
2023/10/05 09:06:57;;;;;;;14.63;6.20;;;12.00;99.90;;;;;;5035361;28;20442;-58
2023/10/05 09:12:17;;;;;;;9.10;5.40;;;12.20;99.90;;;;;;5029040;28;20422;-59
2023/10/05 09:14:43;;;;;;;13.03;5.43;;;12.30;99.90;;;;;;5029724;28;20461;-58
2023/10/05 09:17:09;;;;;;;11.00;6.37;;;12.40;99.30;;;;;;5025998;28;20470;-59
2023/10/05 09:19:37;;;;;;;12.77;5.00;;;12.50;97.80;;;;;;5024003;28;20461;-58
2023/10/05 09:22:22;;;;;;;9.07;5.47;;;12.60;98.30;;;;;;5025422;28;20211;-59
2023/10/05 09:24:54;;;;;;;11.70;4.77;;;12.70;99.00;;;;;;5029066;28;20415;-59
2023/10/05 09:27:20;;;;;;;10.33;5.27;;;12.90;99.90;;;;;;5029638;28;20436;-57
2023/10/05 09:29:48;;;;;;;7.90;5.10;;;13.00;99.40;;;;;;5028179;28;20465;-58
2023/10/05 09:32:41;;;;;;;10.63;5.10;;;13.20;98.90;;;;;;5021488;28;20696;-59
2023/10/05 09:35:10;;;;;;;5.70;4.13;;;13.30;96.60;;;;;;5027428;28;20451;-59
2023/10/05 09:37:40;;;;;;;5.10;3.40;;;13.50;96.00;;;;;;5027266;28;20562;-58
2023/10/05 09:40:15;;;;;;;6.57;4.00;;;13.60;94.00;;;;;;5024267;28;20915;-59
2023/10/05 09:42:42;;;;;;;7.43;3.60;;;13.80;93.10;;;;;;5030187;28;20414;-59
2023/10/05 09:45:12;;;;;;;10.87;3.63;;;14.00;92.90;;;;;;5029668;28;20421;-59
2023/10/05 09:47:40;;;;;;;5.40;3.50;;;14.20;91.00;;;;;;5022864;28;20465;-59
2023/10/05 09:50:13;;;;;;;5.27;3.10;;;14.40;88.00;;;;;;5026978;28;20971;-59
2023/10/05 09:52:48;;;;;;;5.57;3.60;;;14.50;84.80;;;;;;5027189;28;20511;-59
2023/10/05 09:55:18;;;;;;;10.87;5.37;;;14.70;84.70;;;;;;5031792;28;20938;-59
2023/10/05 09:57:51;;;;;;;8.37;3.80;;;14.90;82.50;;;;;;5030044;28;20473;-59
2023/10/05 10:03:17;;;;;;;8.17;3.30;;;15.20;76.10;;;;;;5027607;28;20988;-59
2023/10/05 10:06:07;;;;;;;9.10;3.50;;;15.30;74.80;;;;;;5030691;28;20422;-59
2023/10/05 10:08:34;;;;;;;5.77;3.57;;;15.40;74.20;;;;;;5020940;28;20579;-59
2023/10/05 10:11:07;;;;;;;6.30;3.43;;;15.50;72.70;;;;;;5021209;28;20430;-59
2023/10/05 10:13:37;;;;;;;10.53;3.60;;;15.60;72.50;;;;;;5029293;28;20517;-59
2023/10/05 10:16:16;;;;;;;8.40;3.53;;;15.60;71.50;;;;;;5020567;28;20427;-59
2023/10/05 10:18:45;;;;;;;5.93;3.40;;;15.70;70.30;;;;;;5027370;28;21106;-59
2023/10/05 10:21:25;;;;;;;7.23;2.97;;;15.80;69.30;;;;;;5027066;28;20446;-59
2023/10/05 10:24:04;;;;;;;8.23;3.50;;;15.90;68.20;;;;;;5023295;28;20418;-59
2023/10/05 10:26:30;;;;;;;8.90;3.40;;;16.00;67.60;;;;;;5025379;28;20418;-58
2023/10/05 10:28:57;;;;;;;6.53;3.10;;;16.20;66.00;;;;;;5026631;28;20536;-59
2023/10/05 10:31:30;;;;;;;11.03;3.77;;;16.20;65.50;;;;;;5024783;28;20600;-59
2023/10/05 10:34:05;;;;;;;5.10;3.37;;;16.30;65.60;;;;;;5030168;28;20422;-59
2023/10/05 10:36:52;;;;;;;9.50;3.10;;;16.30;65.10;;;;;;5022042;28;20492;-58
2023/10/05 10:39:24;;;;;;;9.03;3.50;;;16.40;65.20;;;;;;5028468;28;20449;-61
2023/10/05 10:42:19;;;;;;;5.40;3.13;;;16.50;65.70;;;;;;5026705;28;20767;-60
2023/10/05 10:47:14;;;;;;;5.10;3.37;;;16.70;64.80;;;;;;5027256;28;20434;-59
2023/10/05 10:49:40;;;;;;;15.30;3.23;;;16.80;63.70;;;;;;5027871;28;20454;-58
2023/10/05 10:52:09;;;;;;;7.00;2.67;;;16.90;63.20;;;;;;5029792;28;20433;-59
2023/10/05 10:54:40;;;;;;;8.87;3.30;;;17.00;62.10;;;;;;5026685;28;20218;-60
2023/10/05 10:57:06;;;;;;;4.17;3.00;;;17.00;62.20;;;;;;5025017;28;21078;-59
2023/10/05 10:59:41;;;;;;;5.70;3.13;;;17.20;61.90;;;;;;5025456;28;20454;-59
2023/10/05 11:02:12;;;;;;;12.40;3.00;;;17.20;61.10;;;;;;5029001;28;20445;-59
2023/10/05 11:04:39;;;;;;;4.50;2.77;;;17.30;61.00;;;;;;5028475;28;20419;-59
2023/10/05 11:07:05;;;;;;;6.50;3.00;;;17.30;60.40;;;;;;5026838;28;20519;-59
2023/10/05 11:09:54;;;;;;;6.07;2.87;;;17.40;59.40;;;;;;5022095;28;20526;-59
2023/10/05 11:12:21;;;;;;;5.80;2.80;;;17.50;59.60;;;;;;5027229;28;20184;-59
2023/10/05 11:14:47;;;;;;;4.70;2.60;;;17.50;59.60;;;;;;5029263;28;20445;-59
2023/10/05 11:17:29;;;;;;;6.20;2.87;;;17.50;59.00;;;;;;5023486;28;20529;-59
2023/10/05 11:19:55;;;;;;;8.83;3.20;;;17.50;58.40;;;;;;5017576;28;20461;-59
2023/10/05 11:22:24;;;;;;;10.80;3.43;;;17.50;58.20;;;;;;5025736;28;20443;-60
2023/10/05 11:25:17;;;;;;;8.37;3.60;;;17.50;57.20;;;;;;5029953;28;20183;-59
2023/10/05 11:27:48;;;;;;;6.83;3.10;;;17.60;57.50;;;;;;5021895;28;20953;-59
2023/10/05 11:30:21;;;;;;;5.83;2.70;;;17.70;56.80;;;;;;5023951;28;20466;-59
2023/10/05 11:32:56;;;;;;;4.80;2.93;;;17.70;56.80;;;;;;5026997;28;20430;-59
2023/10/05 11:35:28;;;;;;;5.10;3.13;;;17.70;57.10;;;;;;5026618;28;20524;-59
2023/10/05 11:38:04;;;;;;;5.53;3.03;;;17.60;57.00;;;;;;5027410;28;20549;-59
2023/10/05 11:40:31;;;;;;;7.10;3.60;;;17.60;57.40;;;;;;5026415;28;20485;-59
2023/10/05 11:42:57;;;;;;;8.57;3.50;;;17.50;57.10;;;;;;5022313;28;20444;-59
2023/10/05 11:45:23;;;;;;;7.33;3.17;;;17.40;57.20;;;;;;5027185;28;20505;-59
2023/10/05 11:47:53;;;;;;;7.37;3.10;;;17.40;57.90;;;;;;5022830;28;20241;-59
2023/10/05 11:50:32;;;;;;;6.60;2.90;;;17.30;58.30;;;;;;5018470;28;20485;-59
2023/10/05 11:52:58;;;;;;;7.43;3.13;;;17.30;58.20;;;;;;5025430;28;20513;-59
2023/10/05 11:55:24;;;;;;;5.40;2.80;;;17.40;57.70;;;;;;5027740;28;20413;-58
2023/10/05 11:57:52;;;;;;;9.00;2.90;;;17.40;57.30;;;;;;5020903;28;20493;-58
2023/10/05 12:00:18;;;;;;;5.67;3.10;;;17.40;57.80;;;;;;5025483;28;20198;-58
2023/10/05 12:02:47;;;;;;;6.43;3.33;;;17.50;58.10;;;;;;5023126;28;20469;-58
2023/10/05 12:05:13;;;;;;;6.87;3.33;;;17.50;58.40;;;;;;5022683;28;20720;-57
2023/10/05 12:07:41;;;;;;;5.27;3.57;;;17.60;58.30;;;;;;5025430;28;21345;-56
2023/10/05 12:10:11;;;;;;;5.07;3.30;;;17.80;58.10;;;;;;5022848;28;20273;-58
2023/10/05 12:12:41;;;;;;;4.50;3.00;;;18.10;57.60;;;;;;5026426;28;20466;-59
2023/10/05 12:15:12;;;;;;;6.70;2.90;;;18.30;56.40;;;;;;5022452;28;20427;-59
2023/10/05 12:17:40;;;;;;;5.60;2.93;;;18.60;55.20;;;;;;5023266;28;20956;-59
2023/10/05 12:20:08;;;;;;;4.17;2.90;;;19.00;54.10;;;;;;5028315;28;20449;-58
2023/10/05 12:22:37;;;;;;;6.47;2.93;;;19.50;52.60;;;;;;5015500;28;20493;-59
2023/10/05 12:25:07;;;;;;;6.23;2.80;;;20.00;50.40;;;;;;5025502;28;21144;-59
2023/10/05 12:27:36;;;;;;;5.70;2.90;;;20.40;48.10;;;;;;5027384;28;20426;-58
2023/10/05 12:30:11;;;;;;;3.57;2.57;;;20.70;43.80;;;;;;5023772;28;20548;-59
2023/10/05 12:32:40;;;;;;;3.50;2.50;;;20.60;43.60;;;;;;5022367;28;20529;-59
2023/10/05 12:35:13;;;;;;;4.67;2.57;;;20.40;44.10;;;;;;5021466;28;21105;-57
2023/10/05 12:37:40;;;;;;;4.70;2.43;;;20.00;44.60;;;;;;5026323;28;20470;-60
2023/10/05 12:40:19;;;;;;;5.80;3.13;;;19.60;45.90;;;;;;5022244;28;20458;-58
2023/10/05 12:42:56;;;;;;;9.70;3.23;;;19.20;46.10;;;;;;5022833;28;20462;-58
2023/10/05 12:45:24;;;;;;;5.73;2.80;;;18.80;46.80;;;;;;5024973;28;20998;-58
2023/10/05 12:47:57;;;;;;;6.73;3.33;;;18.60;48.20;;;;;;5028024;28;20842;-59
2023/10/05 12:50:30;;;;;;;6.83;3.87;;;18.40;48.30;;;;;;5025994;28;20458;-58
2023/10/05 12:52:58;;;;;;;5.97;2.80;;;18.20;48.60;;;;;;5026388;28;20500;-58
2023/10/05 12:55:29;;;;;;;7.73;3.27;;;18.10;48.30;;;;;;5024482;28;20419;-58
2023/10/05 12:57:55;;;;;;;6.63;3.33;;;18.00;48.60;;;;;;5025637;28;20468;-59
2023/10/05 13:00:25;;;;;;;6.70;3.67;;;18.00;49.10;;;;;;5026336;28;20850;-59
2023/10/05 13:02:52;;;;;;;7.87;3.40;;;18.10;50.10;;;;;;5020290;28;20504;-59
2023/10/05 13:05:20;;;;;;;6.60;3.57;;;18.30;49.60;;;;;;5026381;28;20461;-61
2023/10/05 13:07:47;;;;;;;8.20;3.93;;;18.50;48.90;;;;;;5023311;28;20471;-59
2023/10/05 13:10:26;;;;;;;7.97;3.33;;;18.60;48.80;;;;;;5023390;28;20503;-58
2023/10/05 13:12:52;;;;;;;6.40;3.23;;;18.70;49.50;;;;;;5022076;28;20480;-59
2023/10/05 13:15:24;;;;;;;6.47;3.00;;;18.70;49.10;;;;;;5027746;28;20442;-59
2023/10/05 13:17:51;;;;;;;4.63;3.10;;;18.60;49.30;;;;;;5017565;28;20485;-58
2023/10/05 13:20:24;;;;;;;7.77;4.30;;;18.50;49.90;;;;;;5020860;28;20463;-59
2023/10/05 13:22:53;;;;;;;8.63;3.90;;;18.30;50.50;;;;;;5022978;28;20427;-59
2023/10/05 13:25:20;;;;;;;6.47;3.33;;;18.00;50.30;;;;;;5020702;28;20435;-59
2023/10/05 13:27:45;;;;;;;7.40;3.43;;;17.80;51.50;;;;;;5027389;28;20772;-59
2023/10/05 13:30:20;;;;;;;7.93;3.67;;;17.60;51.50;;;;;;5027287;28;20449;-59